createdAt,value
2019-01-20T04:00:57.912Z,0.00
2019-01-20T04:01:58.094Z,0.00
2019-01-20T04:02:58.199Z,0.00
2019-01-20T04:03:58.341Z,0.00
2019-01-20T04:04:58.434Z,0.00
2019-01-20T04:05:58.634Z,0.00
2019-01-20T04:06:58.746Z,0.00
2019-01-20T04:07:58.924Z,0.00
2019-01-20T04:08:59.083Z,0.00
2019-01-20T04:09:59.201Z,0.00
2019-01-20T04:10:59.381Z,0.00
2019-01-20T04:11:59.563Z,0.00
2019-01-20T04:12:59.758Z,0.00
2019-01-20T04:13:59.854Z,0.00
2019-01-20T04:14:59.979Z,0.00
2019-01-20T04:16:00.173Z,0.00
2019-01-20T04:17:00.301Z,0.00
2019-01-20T04:18:00.525Z,0.00
2019-01-20T04:19:00.583Z,0.00
2019-01-20T04:20:00.746Z,0.00
2019-01-20T04:21:00.897Z,0.00
2019-01-20T04:22:01.035Z,0.00
2019-01-20T04:23:01.275Z,0.00
2019-01-20T04:24:01.394Z,0.00
2019-01-20T04:25:01.529Z,0.00
2019-01-20T04:26:01.666Z,0.00
2019-01-20T04:27:01.835Z,0.00
2019-01-20T04:28:02.047Z,0.00
2019-01-20T04:29:02.181Z,0.00
2019-01-20T04:30:02.277Z,0.00
2019-01-20T04:31:02.486Z,0.00
2019-01-20T04:32:02.617Z,0.00
2019-01-20T04:33:02.742Z,0.00
2019-01-20T04:34:02.948Z,0.00
2019-01-20T04:35:03.075Z,0.00
2019-01-20T04:36:03.243Z,0.00
2019-01-20T04:37:03.364Z,0.00
2019-01-20T04:38:03.513Z,0.00
2019-01-20T04:39:03.666Z,0.00
2019-01-20T04:40:03.918Z,0.00
2019-01-20T04:41:04.002Z,0.00
2019-01-20T04:42:04.160Z,0.00
2019-01-20T04:43:04.278Z,0.00
2019-01-20T04:44:04.459Z,0.00
2019-01-20T04:45:04.642Z,0.00
2019-01-20T04:46:04.851Z,0.00
2019-01-20T04:47:04.894Z,0.00
2019-01-20T04:48:05.042Z,0.00
2019-01-20T04:49:05.274Z,0.00
2019-01-20T04:50:05.367Z,0.00
2019-01-20T04:51:05.481Z,0.00
2019-01-20T04:52:05.716Z,0.00
2019-01-20T04:53:05.876Z,0.00
2019-01-20T04:54:06.010Z,0.00
2019-01-20T04:55:06.119Z,0.00
2019-01-20T04:56:06.303Z,0.00
2019-01-20T04:57:06.462Z,0.00
2019-01-20T04:58:06.588Z,0.00
2019-01-20T04:59:06.716Z,0.00
2019-01-20T05:00:07.008Z,0.00
2019-01-20T05:01:07.157Z,0.00
2019-01-20T05:02:07.195Z,0.00
2019-01-20T05:03:07.379Z,0.00
2019-01-20T05:04:07.558Z,0.00
2019-01-20T05:05:07.689Z,0.00
2019-01-20T05:06:07.895Z,0.00
2019-01-20T05:07:08.126Z,0.00
2019-01-20T05:08:08.264Z,0.00
2019-01-20T05:09:08.450Z,0.00
2019-01-20T05:10:08.609Z,0.00
2019-01-20T05:11:08.710Z,0.00
2019-01-20T05:12:08.890Z,0.00
2019-01-20T05:13:09.096Z,0.00
2019-01-20T05:14:09.210Z,0.00
2019-01-20T05:15:09.336Z,0.00
2019-01-20T05:16:09.468Z,0.00
2019-01-20T05:17:09.670Z,0.00
2019-01-20T05:18:09.812Z,0.00
2019-01-20T05:19:09.976Z,0.00
2019-01-20T05:20:10.175Z,0.00
2019-01-20T05:21:10.266Z,0.00
2019-01-20T05:22:10.436Z,0.00
2019-01-20T05:23:10.598Z,0.00
2019-01-20T05:24:10.745Z,0.00
2019-01-20T05:25:10.931Z,0.00
2019-01-20T05:26:11.028Z,0.00
2019-01-20T05:27:11.241Z,0.00
2019-01-20T05:28:11.333Z,0.00
2019-01-20T05:29:11.576Z,0.00
2019-01-20T05:30:11.668Z,0.00
2019-01-20T05:31:11.874Z,0.00
2019-01-20T05:32:12.040Z,0.00
2019-01-20T05:33:12.273Z,0.00
2019-01-20T05:34:12.323Z,0.00
2019-01-20T05:35:12.586Z,0.00
2019-01-20T05:36:12.721Z,0.00
2019-01-20T05:37:12.880Z,0.00
2019-01-20T05:38:12.997Z,0.00
2019-01-20T05:39:13.229Z,0.00
2019-01-20T05:40:13.427Z,0.00
2019-01-20T05:41:13.567Z,0.00
2019-01-20T05:42:13.791Z,0.00
2019-01-20T05:43:13.944Z,0.00
2019-01-20T05:44:14.051Z,0.00
2019-01-20T05:45:14.263Z,0.00
2019-01-20T05:46:14.470Z,0.00
2019-01-20T05:47:14.639Z,0.00
2019-01-20T05:48:14.691Z,0.00
2019-01-20T05:49:14.886Z,0.00
2019-01-20T05:50:15.039Z,0.00
2019-01-20T05:51:15.214Z,0.00
2019-01-20T05:52:15.313Z,0.00
2019-01-20T05:53:15.444Z,0.00
2019-01-20T05:54:15.632Z,0.00
2019-01-20T05:55:15.796Z,0.00
2019-01-20T05:56:16.032Z,0.00
2019-01-20T05:57:16.071Z,0.00
2019-01-20T05:58:16.256Z,0.00
2019-01-20T05:59:16.440Z,0.00
2019-01-20T06:00:16.615Z,0.00
2019-01-20T06:01:16.681Z,0.00
2019-01-20T06:02:16.901Z,0.00
2019-01-20T06:03:17.106Z,0.00
2019-01-20T06:04:17.232Z,0.00
2019-01-20T06:05:17.358Z,0.00
2019-01-20T06:06:17.527Z,0.00
2019-01-20T06:07:17.689Z,0.00
2019-01-20T06:08:17.815Z,0.00
2019-01-20T06:09:18.077Z,0.00
2019-01-20T06:10:18.192Z,0.00
2019-01-20T06:11:18.307Z,0.00
2019-01-20T06:12:18.510Z,0.00
2019-01-20T06:13:18.615Z,0.00
2019-01-20T06:14:18.768Z,0.00
2019-01-20T06:15:18.901Z,0.00
2019-01-20T06:16:19.087Z,0.00
2019-01-20T06:17:19.963Z,0.00
2019-01-20T06:18:19.639Z,0.00
2019-01-20T06:19:19.512Z,0.00
2019-01-20T06:20:19.701Z,0.00
2019-01-20T06:21:19.915Z,0.00
2019-01-20T06:22:37.758Z,0.00
2019-01-20T06:23:22.351Z,0.00
2019-01-20T06:24:22.424Z,0.00
2019-01-20T06:25:21.272Z,0.00
2019-01-20T06:26:20.898Z,0.00
2019-01-20T06:27:21.094Z,0.00
2019-01-20T06:28:21.095Z,0.00
2019-01-20T06:29:21.330Z,0.00
2019-01-20T06:30:21.535Z,0.00
2019-01-20T06:31:21.653Z,0.00
2019-01-20T06:32:21.847Z,0.00
2019-01-20T06:33:21.883Z,0.00
2019-01-20T06:34:22.027Z,0.00
2019-01-20T06:35:22.308Z,0.00
2019-01-20T06:36:22.655Z,0.00
2019-01-20T06:37:22.575Z,4.00
2019-01-20T06:38:24.070Z,4.00
2019-01-20T06:39:23.211Z,0.00
2019-01-20T06:40:23.208Z,4.00
2019-01-20T06:41:23.512Z,4.00
2019-01-20T06:42:24.002Z,4.00
2019-01-20T06:43:24.543Z,8.00
2019-01-20T06:44:24.009Z,8.00
2019-01-20T06:45:24.022Z,8.00
2019-01-20T06:46:24.216Z,8.00
2019-01-20T06:47:24.465Z,12.00
2019-01-20T06:48:24.507Z,12.00
2019-01-20T06:49:24.829Z,16.00
2019-01-20T06:50:25.030Z,20.00
2019-01-20T06:51:25.098Z,24.00
2019-01-20T06:52:25.523Z,28.00
2019-01-20T06:53:25.629Z,32.00
2019-01-20T06:54:25.590Z,36.00
2019-01-20T06:55:25.806Z,44.00
2019-01-20T06:56:25.921Z,48.00
2019-01-20T06:57:26.196Z,52.00
2019-01-20T06:58:26.501Z,64.00
2019-01-20T06:59:26.673Z,68.00
2019-01-20T07:00:26.632Z,80.00
2019-01-20T07:01:26.971Z,92.00
2019-01-20T07:02:27.062Z,104.00
2019-01-20T07:03:27.258Z,120.00
2019-01-20T07:04:27.385Z,132.00
2019-01-20T07:05:27.525Z,152.00
2019-01-20T07:06:27.572Z,172.00
2019-01-20T07:07:28.420Z,192.00
2019-01-20T07:08:27.989Z,208.00
2019-01-20T07:09:28.049Z,232.00
2019-01-20T07:10:28.273Z,256.00
2019-01-20T07:11:29.012Z,280.00
2019-01-20T07:12:28.728Z,308.00
2019-01-20T07:13:28.988Z,336.00
2019-01-20T07:14:29.646Z,368.00
2019-01-20T07:15:29.071Z,396.00
2019-01-20T07:16:29.313Z,432.00
2019-01-20T07:17:29.821Z,468.00
2019-01-20T07:18:31.574Z,500.00
2019-01-20T07:19:30.201Z,540.00
2019-01-20T07:20:30.539Z,576.00
2019-01-20T07:21:30.831Z,616.00
2019-01-20T07:22:30.482Z,660.00
2019-01-20T07:23:30.703Z,700.00
2019-01-20T07:24:31.470Z,744.00
2019-01-20T07:25:32.075Z,784.00
2019-01-20T07:26:30.916Z,836.00
2019-01-20T07:27:31.127Z,884.00
2019-01-20T07:28:31.174Z,932.00
2019-01-20T07:29:31.933Z,984.00
2019-01-20T07:30:31.446Z,1032.00
2019-01-20T07:31:31.728Z,1084.00
2019-01-20T07:32:32.056Z,1140.00
2019-01-20T07:33:32.282Z,1192.00
2019-01-20T07:34:32.297Z,1248.00
2019-01-20T07:35:32.214Z,1308.00
2019-01-20T07:36:32.791Z,1360.00
2019-01-20T07:37:32.908Z,1420.00
2019-01-20T07:38:32.650Z,1480.00
2019-01-20T07:39:33.077Z,1540.00
2019-01-20T07:40:33.093Z,1600.00
2019-01-20T07:41:33.359Z,1664.00
2019-01-20T07:42:33.641Z,1736.00
2019-01-20T07:43:33.658Z,1804.00
2019-01-20T07:44:33.728Z,1868.00
2019-01-20T07:45:33.921Z,1952.00
2019-01-20T07:46:34.381Z,2020.00
2019-01-20T07:47:34.243Z,2072.00
2019-01-20T07:48:34.415Z,2144.00
2019-01-20T07:49:39.118Z,2216.00
2019-01-20T07:52:28.161Z,2392.00
2019-01-20T07:53:41.758Z,2464.00
2019-01-20T07:54:28.996Z,2528.00
2019-01-20T07:55:39.544Z,2596.00
2019-01-20T07:56:29.270Z,2664.00
2019-01-20T07:57:33.161Z,2724.00
2019-01-20T07:58:29.293Z,2780.00
2019-01-20T07:59:30.915Z,2812.00
2019-01-20T08:02:16.579Z,3008.00
2019-01-20T08:03:16.037Z,3096.00
2019-01-20T08:04:15.623Z,3176.00
2019-01-20T08:05:15.051Z,3256.00
2019-01-20T08:06:15.174Z,3480.00
2019-01-20T08:07:15.320Z,3792.00
2019-01-20T08:08:15.458Z,4340.00
2019-01-20T08:09:15.659Z,5004.00
2019-01-20T08:10:15.840Z,5180.00
2019-01-20T08:15:48.215Z,7216.00
2019-01-20T08:16:48.617Z,9380.00
2019-01-20T08:17:48.465Z,9392.00
2019-01-20T08:18:48.883Z,7480.00
2019-01-20T08:19:49.555Z,8592.00
2019-01-20T08:20:49.001Z,8328.00
2019-01-20T08:21:49.164Z,8044.00
2019-01-20T08:22:49.052Z,9880.00
2019-01-20T08:29:18.851Z,7872.00
2019-01-20T08:30:24.917Z,8304.00
2019-01-20T08:31:18.960Z,8168.00
2019-01-20T08:32:20.868Z,6376.00
2019-01-20T08:33:19.406Z,5572.00
2019-01-20T08:34:19.833Z,5628.00
2019-01-20T08:35:19.914Z,7204.00
2019-01-20T08:36:19.971Z,7184.00
2019-01-20T08:37:20.301Z,5892.00
2019-01-20T08:38:22.980Z,5672.00
2019-01-20T08:41:05.310Z,5924.00
2019-01-20T08:42:03.629Z,6056.00
2019-01-20T08:43:04.065Z,6160.00
2019-01-20T08:44:03.374Z,6256.00
2019-01-20T08:45:04.172Z,6392.00
2019-01-20T08:46:02.361Z,6532.00
2019-01-20T08:47:02.306Z,6676.00
2019-01-20T08:48:02.713Z,6788.00
2019-01-20T08:49:02.664Z,6916.00
2019-01-20T08:50:03.524Z,7056.00
2019-01-20T08:51:23.092Z,7172.00
2019-01-20T08:52:05.661Z,7292.00
2019-01-20T08:53:03.747Z,7708.00
2019-01-20T08:54:03.739Z,11704.00
2019-01-20T08:55:04.005Z,15264.00
2019-01-20T08:56:05.380Z,15936.00
2019-01-20T08:57:07.535Z,19264.00
2019-01-20T08:58:05.221Z,21248.00
2019-01-20T08:59:04.792Z,20608.00
2019-01-20T09:00:06.361Z,18592.00
2019-01-20T09:01:21.308Z,19520.00
2019-01-20T09:02:09.092Z,21024.00
2019-01-20T09:03:07.893Z,21536.00
2019-01-20T09:04:07.604Z,22112.00
2019-01-20T09:05:11.631Z,19424.00
2019-01-20T09:06:12.141Z,11644.00
2019-01-20T09:07:08.612Z,14612.00
2019-01-20T09:10:14.085Z,15004.00
2019-01-20T09:11:14.120Z,13972.00
2019-01-20T09:12:14.561Z,17856.00
2019-01-20T09:13:14.431Z,13492.00
2019-01-20T09:14:12.267Z,17440.00
2019-01-20T09:15:12.577Z,24064.00
2019-01-20T09:16:12.500Z,30656.00
2019-01-20T09:17:13.512Z,26656.00
2019-01-20T09:18:12.656Z,18400.00
2019-01-20T09:19:12.842Z,26944.00
2019-01-20T09:20:13.294Z,28832.00
2019-01-20T09:21:13.344Z,32736.00
2019-01-20T09:22:13.449Z,38016.00
2019-01-20T09:23:13.584Z,40768.00
2019-01-20T09:24:13.720Z,40736.00
2019-01-20T09:25:14.102Z,32320.00
2019-01-20T09:26:14.344Z,26400.00
2019-01-20T09:33:43.837Z,32288.00
2019-01-20T09:34:44.307Z,23200.00
2019-01-20T09:35:42.972Z,28928.00
2019-01-20T09:36:42.168Z,39520.00
2019-01-20T09:37:42.224Z,36000.00
2019-01-20T09:38:42.283Z,33888.00
2019-01-20T09:39:42.506Z,37824.00
2019-01-20T09:40:42.694Z,38816.00
2019-01-20T09:41:43.138Z,39264.00
2019-01-20T09:42:43.091Z,38336.00
2019-01-20T09:43:47.081Z,33568.00
2019-01-20T09:44:43.824Z,28736.00
2019-01-20T09:45:43.403Z,31968.00
2019-01-20T09:46:43.956Z,36448.00
2019-01-20T09:47:44.267Z,34560.00
2019-01-20T09:48:44.048Z,30016.00
2019-01-20T09:49:44.447Z,27680.00
2019-01-20T09:50:44.335Z,41376.00
2019-01-20T09:51:44.594Z,42144.00
2019-01-20T09:52:44.537Z,42688.00
2019-01-20T09:53:44.901Z,32992.00
2019-01-20T09:54:45.010Z,36928.00
2019-01-20T09:55:45.206Z,35168.00
2019-01-20T09:56:45.277Z,29664.00
2019-01-20T09:57:45.549Z,36928.00
2019-01-20T09:58:46.371Z,43104.00
2019-01-20T09:59:45.834Z,47552.00
2019-01-20T10:00:46.062Z,50848.00
2019-01-20T10:01:46.419Z,53088.00
2019-01-20T10:02:46.515Z,51584.00
2019-01-20T10:03:46.905Z,48800.00
2019-01-20T10:04:46.709Z,50560.00
2019-01-20T10:05:46.870Z,54528.00
2019-01-20T10:06:48.152Z,54624.00
2019-01-20T10:07:47.687Z,56992.00
2019-01-20T10:08:47.731Z,58752.00
2019-01-20T10:09:47.673Z,53664.00
2019-01-20T10:10:47.918Z,54208.00
2019-01-20T10:11:48.026Z,59360.00
2019-01-20T10:12:48.412Z,62400.00
2019-01-20T10:13:54.789Z,60576.00
2019-01-20T10:14:48.742Z,54400.00
2019-01-20T10:15:52.140Z,55136.00
2019-01-20T10:16:49.840Z,59104.00
2019-01-20T10:17:48.816Z,61056.00
2019-01-20T10:18:48.988Z,60352.00
2019-01-20T10:19:49.156Z,58560.00
2019-01-20T10:20:49.198Z,57760.00
2019-01-20T10:21:49.446Z,57952.00
2019-01-20T10:22:49.656Z,60512.00
2019-01-20T10:23:51.295Z,63840.00
2019-01-20T10:24:50.076Z,65696.00
2019-01-20T10:25:51.996Z,63200.00
2019-01-20T10:26:50.544Z,60000.00
2019-01-20T10:27:50.543Z,61600.00
2019-01-20T10:28:50.708Z,65664.00
2019-01-20T10:29:50.858Z,67456.00
2019-01-20T10:31:05.905Z,65984.00
2019-01-20T10:31:54.681Z,60160.00
2019-01-20T10:32:54.971Z,59552.00
2019-01-20T10:33:53.648Z,63584.00
2019-01-20T10:34:54.059Z,68256.00
2019-01-20T10:35:54.390Z,70080.00
2019-01-20T10:36:52.552Z,66592.00
2019-01-20T10:37:52.288Z,60864.00
2019-01-20T10:38:52.518Z,57504.00
2019-01-20T10:39:52.668Z,60768.00
2019-01-20T10:40:52.856Z,65088.00
2019-01-20T10:41:53.510Z,66944.00
2019-01-20T10:42:53.110Z,67584.00
2019-01-20T10:43:53.307Z,67424.00
2019-01-20T10:44:53.378Z,67040.00
2019-01-20T10:47:37.900Z,68544.00
2019-01-20T10:49:45.829Z,72128.00
2019-01-20T10:51:36.944Z,66304.00
2019-01-20T10:52:36.944Z,66400.00
2019-01-20T10:53:37.274Z,68416.00
2019-01-20T10:54:37.418Z,72448.00
2019-01-20T10:55:37.535Z,73184.00
2019-01-20T10:56:37.717Z,71872.00
2019-01-20T10:57:37.942Z,70944.00
2019-01-20T10:58:38.049Z,74240.00
2019-01-20T10:59:38.202Z,75328.00
2019-01-20T11:00:38.674Z,71712.00
2019-01-20T11:01:38.549Z,65888.00
2019-01-20T11:02:38.754Z,60448.00
2019-01-20T11:03:38.947Z,59040.00
2019-01-20T11:04:39.037Z,63648.00
2019-01-20T11:05:39.173Z,71392.00
2019-01-20T11:06:39.407Z,77760.00
2019-01-20T11:07:39.501Z,80704.00
2019-01-20T11:08:39.772Z,80512.00
2019-01-20T11:09:39.885Z,78976.00
2019-01-20T11:10:40.260Z,76640.00
2019-01-20T11:11:40.231Z,78240.00
2019-01-20T11:12:41.039Z,81344.00
2019-01-20T11:13:40.537Z,80160.00
2019-01-20T11:14:40.694Z,78976.00
2019-01-20T11:15:40.855Z,79936.00
2019-01-20T11:16:41.009Z,78976.00
2019-01-20T11:17:41.158Z,75200.00
2019-01-20T11:18:41.389Z,71840.00
2019-01-20T11:19:41.588Z,68032.00
2019-01-20T11:20:41.686Z,68096.00
2019-01-20T11:21:41.882Z,72896.00
2019-01-20T11:22:42.061Z,77728.00
2019-01-20T11:23:42.283Z,82016.00
2019-01-20T11:24:42.357Z,84448.00
2019-01-20T11:25:42.558Z,82240.00
2019-01-20T11:26:42.782Z,78240.00
2019-01-20T11:27:42.908Z,76288.00
2019-01-20T11:28:43.220Z,78592.00
2019-01-20T11:29:43.335Z,83200.00
2019-01-20T11:30:43.450Z,86464.00
2019-01-20T11:31:43.620Z,87648.00
2019-01-20T11:32:47.412Z,85024.00
2019-01-20T11:33:44.079Z,83968.00
2019-01-20T11:34:44.219Z,84608.00
2019-01-20T11:35:44.365Z,84576.00
2019-01-20T11:36:44.514Z,85568.00
2019-01-20T11:37:44.882Z,86752.00
2019-01-20T11:38:45.202Z,88448.00
2019-01-20T11:39:45.163Z,87328.00
2019-01-20T11:40:45.132Z,84320.00
2019-01-20T11:41:45.253Z,82272.00
2019-01-20T11:42:45.551Z,80928.00
2019-01-20T11:43:45.700Z,83040.00
2019-01-20T11:44:45.786Z,88064.00
2019-01-20T11:45:46.081Z,90112.00
2019-01-20T11:46:46.177Z,89856.00
2019-01-20T11:47:46.357Z,89760.00
2019-01-20T11:48:46.518Z,88960.00
2019-01-20T11:49:46.695Z,85472.00
2019-01-20T11:50:46.863Z,82848.00
2019-01-20T11:51:47.078Z,81440.00
2019-01-20T11:52:47.267Z,82240.00
2019-01-20T11:53:47.441Z,86112.00
2019-01-20T11:54:47.543Z,89184.00
2019-01-20T11:55:47.682Z,90304.00
2019-01-20T11:56:47.819Z,87456.00
2019-01-20T11:57:48.043Z,84640.00
2019-01-20T11:58:48.154Z,85120.00
2019-01-20T11:59:48.307Z,87552.00
2019-01-20T12:00:48.457Z,86752.00
2019-01-20T12:01:48.666Z,86464.00
2019-01-20T12:02:48.888Z,85536.00
2019-01-20T12:03:49.014Z,86144.00
2019-01-20T12:04:49.284Z,87904.00
2019-01-20T12:05:49.341Z,89536.00
2019-01-20T12:06:49.578Z,90048.00
2019-01-20T12:07:49.806Z,89536.00
2019-01-20T12:08:49.904Z,86752.00
2019-01-20T12:09:50.133Z,83456.00
2019-01-20T12:10:50.229Z,80448.00
2019-01-20T12:11:50.427Z,85760.00
2019-01-20T12:12:50.660Z,86336.00
2019-01-20T12:13:50.796Z,89024.00
2019-01-20T12:14:51.020Z,93408.00
2019-01-20T12:15:51.129Z,95616.00
2019-01-20T12:16:51.330Z,92832.00
2019-01-20T12:17:51.517Z,89600.00
2019-01-20T12:18:51.725Z,84768.00
2019-01-20T12:19:51.840Z,83040.00
2019-01-20T12:20:51.991Z,88480.00
2019-01-20T12:21:52.170Z,94432.00
2019-01-20T12:22:52.428Z,96576.00
2019-01-20T12:23:52.605Z,96192.00
2019-01-20T12:24:52.729Z,91968.00
2019-01-20T12:25:52.927Z,89024.00
2019-01-20T12:26:53.080Z,85728.00
2019-01-20T12:27:53.176Z,84672.00
2019-01-20T12:28:53.376Z,87776.00
2019-01-20T12:29:53.576Z,91328.00
2019-01-20T12:30:53.795Z,91264.00
2019-01-20T12:31:53.912Z,89376.00
2019-01-20T12:32:54.061Z,87936.00
2019-01-20T12:34:05.112Z,88640.00
2019-01-20T12:35:55.100Z,93248.00
2019-01-20T12:36:54.766Z,92896.00
2019-01-20T12:37:54.904Z,92960.00
2019-01-20T12:38:55.079Z,94176.00
2019-01-20T12:39:55.271Z,96864.00
2019-01-20T12:40:55.385Z,94688.00
2019-01-20T12:41:55.705Z,87840.00
2019-01-20T12:42:55.839Z,82592.00
2019-01-20T12:43:55.976Z,79200.00
2019-01-20T12:44:56.181Z,79968.00
2019-01-20T12:45:56.341Z,84320.00
2019-01-20T12:46:56.463Z,87488.00
2019-01-20T12:47:56.710Z,87424.00
2019-01-20T12:48:56.881Z,85920.00
2019-01-20T12:49:56.997Z,84096.00
2019-01-20T12:50:57.275Z,81728.00
2019-01-20T12:51:57.429Z,79840.00
2019-01-20T12:52:57.570Z,79584.00
2019-01-20T12:53:57.711Z,81056.00
2019-01-20T12:54:57.890Z,80896.00
2019-01-20T12:55:58.094Z,79168.00
2019-01-20T12:56:58.338Z,77024.00
2019-01-20T12:57:58.474Z,78400.00
2019-01-20T12:58:58.649Z,78240.00
2019-01-20T12:59:58.757Z,78720.00
2019-01-20T13:00:58.969Z,78144.00
2019-01-20T13:01:59.189Z,75776.00
2019-01-20T13:02:59.273Z,75456.00
2019-01-20T13:03:59.553Z,78464.00
2019-01-20T13:04:59.680Z,83680.00
2019-01-20T13:05:59.815Z,82016.00
2019-01-20T13:07:00.029Z,71872.00
2019-01-20T13:08:00.195Z,64064.00
2019-01-20T13:09:00.422Z,60128.00
2019-01-20T13:10:00.475Z,54080.00
2019-01-20T13:11:00.649Z,52128.00
2019-01-20T13:12:00.873Z,57088.00
2019-01-20T13:13:00.987Z,57664.00
2019-01-20T13:14:01.154Z,55552.00
2019-01-20T13:15:01.358Z,64032.00
2019-01-20T13:16:01.522Z,60736.00
2019-01-20T13:17:01.719Z,61344.00
2019-01-20T13:18:01.939Z,67872.00
2019-01-20T13:19:02.096Z,71936.00
2019-01-20T13:20:02.281Z,62752.00
2019-01-20T13:21:02.447Z,68000.00
2019-01-20T13:22:02.598Z,72256.00
2019-01-20T13:23:02.800Z,61120.00
2019-01-20T13:24:02.904Z,61888.00
2019-01-20T13:25:03.148Z,63072.00
2019-01-20T13:26:03.291Z,52352.00
2019-01-20T13:27:03.441Z,50304.00
2019-01-20T13:28:03.608Z,48480.00
2019-01-20T13:29:03.704Z,39968.00
2019-01-20T13:30:03.929Z,46464.00
2019-01-20T13:31:04.202Z,43872.00
2019-01-20T13:32:04.438Z,32160.00
2019-01-20T13:33:04.555Z,40384.00
2019-01-20T13:34:04.650Z,32704.00
2019-01-20T13:35:04.853Z,38432.00
2019-01-20T13:36:07.261Z,47104.00
2019-01-20T13:37:05.255Z,39616.00
2019-01-20T13:38:05.434Z,44320.00
2019-01-20T13:39:05.553Z,51456.00
2019-01-20T13:40:05.811Z,59712.00
2019-01-20T13:41:06.006Z,49568.00
2019-01-20T13:42:06.153Z,44768.00
2019-01-20T13:43:06.418Z,60320.00
2019-01-20T13:44:06.531Z,59040.00
2019-01-20T13:45:06.754Z,54624.00
2019-01-20T13:46:06.896Z,52640.00
2019-01-20T13:47:07.053Z,44128.00
2019-01-20T13:48:07.264Z,46944.00
2019-01-20T13:49:07.405Z,58304.00
2019-01-20T13:50:07.542Z,64800.00
2019-01-20T13:51:07.700Z,66080.00
2019-01-20T13:52:08.016Z,58240.00
2019-01-20T13:53:08.134Z,47616.00
2019-01-20T13:54:08.342Z,48384.00
2019-01-20T13:55:08.565Z,45568.00
2019-01-20T13:56:08.681Z,42848.00
2019-01-20T13:57:08.876Z,48704.00
2019-01-20T13:58:09.162Z,47168.00
2019-01-20T13:59:09.116Z,34880.00
2019-01-20T14:00:09.327Z,38720.00
2019-01-20T14:01:09.484Z,43072.00
2019-01-20T14:02:09.659Z,48384.00
2019-01-20T14:03:09.826Z,54112.00
2019-01-20T14:04:10.042Z,50592.00
2019-01-20T14:05:10.197Z,46688.00
2019-01-20T14:06:10.387Z,39264.00
2019-01-20T14:07:10.474Z,40000.00
2019-01-20T14:08:10.665Z,54048.00
2019-01-20T14:09:10.888Z,57920.00
2019-01-20T14:10:11.235Z,55776.00
2019-01-20T14:11:11.210Z,54368.00
2019-01-20T14:12:11.398Z,51200.00
2019-01-20T14:13:11.559Z,53600.00
2019-01-20T14:14:11.752Z,58880.00
2019-01-20T14:17:36.815Z,49280.00
2019-01-20T14:18:37.038Z,46464.00
2019-01-20T14:21:39.881Z,22144.00
2019-01-20T14:22:39.759Z,23072.00
2019-01-20T14:23:39.291Z,30688.00
2019-01-20T14:24:52.784Z,32640.00
2019-01-20T14:26:45.840Z,43968.00
2019-01-20T14:27:39.860Z,46912.00
2019-01-20T14:30:40.804Z,52096.00
2019-01-20T14:31:42.435Z,49536.00
2019-01-20T14:32:41.637Z,47104.00
2019-01-20T14:33:42.976Z,39776.00
2019-01-20T14:34:42.469Z,34848.00
2019-01-20T14:35:42.828Z,32000.00
2019-01-20T14:36:40.699Z,39168.00
2019-01-20T14:37:39.746Z,43200.00
2019-01-20T14:38:39.808Z,23008.00
2019-01-20T14:39:39.894Z,13664.00
2019-01-20T14:40:40.152Z,28800.00
2019-01-20T14:41:40.296Z,33184.00
2019-01-20T14:42:40.417Z,26688.00
2019-01-20T14:43:40.548Z,22208.00
2019-01-20T14:44:40.735Z,19456.00
2019-01-20T14:45:40.884Z,20736.00
2019-01-20T14:46:41.134Z,21600.00
2019-01-20T14:47:41.313Z,27040.00
2019-01-20T14:48:41.442Z,39104.00
2019-01-20T14:49:41.655Z,25280.00
2019-01-20T14:50:41.777Z,30048.00
2019-01-20T14:51:41.999Z,18496.00
2019-01-20T14:52:42.111Z,8464.00
2019-01-20T14:53:42.243Z,11344.00
2019-01-20T14:54:42.436Z,16384.00
2019-01-20T14:55:42.640Z,20256.00
2019-01-20T14:56:42.769Z,23840.00
2019-01-20T14:57:42.899Z,26304.00
2019-01-20T14:58:43.122Z,21504.00
2019-01-20T14:59:43.294Z,24384.00
2019-01-20T15:00:43.556Z,27232.00
2019-01-20T15:01:43.657Z,23808.00
2019-01-20T15:02:43.820Z,20192.00
2019-01-20T15:03:44.026Z,21344.00
2019-01-20T15:04:44.138Z,22688.00
2019-01-20T15:05:44.432Z,24032.00
2019-01-20T15:06:44.497Z,18144.00
2019-01-20T15:07:44.681Z,8824.00
2019-01-20T15:08:44.878Z,4544.00
2019-01-20T15:09:45.037Z,3100.00
2019-01-20T15:10:45.204Z,3004.00
2019-01-20T15:11:46.391Z,2920.00
2019-01-20T15:12:45.564Z,2848.00
2019-01-20T15:13:45.763Z,2776.00
2019-01-20T15:14:45.919Z,2704.00
2019-01-20T15:15:46.044Z,2628.00
2019-01-20T15:16:46.235Z,2564.00
2019-01-20T15:17:46.422Z,2488.00
2019-01-20T15:18:46.557Z,2416.00
2019-01-20T15:19:46.739Z,2348.00
2019-01-20T15:20:46.983Z,2276.00
2019-01-20T15:21:47.011Z,2204.00
2019-01-20T15:22:47.286Z,2136.00
2019-01-20T15:23:47.383Z,2064.00
2019-01-20T15:24:47.562Z,2000.00
2019-01-20T15:25:47.701Z,1932.00
2019-01-20T15:26:47.901Z,1864.00
2019-01-20T15:27:48.055Z,1796.00
2019-01-20T15:28:48.236Z,1724.00
2019-01-20T15:29:48.387Z,1656.00
2019-01-20T15:30:48.545Z,1588.00
2019-01-20T15:31:48.706Z,1520.00
2019-01-20T15:32:48.925Z,1452.00
2019-01-20T15:33:49.052Z,1388.00
2019-01-20T15:34:49.208Z,1324.00
2019-01-20T15:35:49.349Z,1256.00
2019-01-20T15:36:49.511Z,1196.00
2019-01-20T15:37:49.734Z,1132.00
2019-01-20T15:38:49.876Z,1072.00
2019-01-20T15:39:50.044Z,1012.00
2019-01-20T15:40:50.140Z,960.00
2019-01-20T15:41:50.441Z,904.00
2019-01-20T15:42:50.477Z,848.00
2019-01-20T15:43:50.696Z,800.00
2019-01-20T15:44:50.812Z,748.00
2019-01-20T15:45:50.986Z,696.00
2019-01-20T15:46:51.207Z,652.00
2019-01-20T15:47:52.563Z,608.00
2019-01-20T15:48:51.493Z,564.00
2019-01-20T15:49:51.719Z,520.00
2019-01-20T15:50:51.821Z,484.00
2019-01-20T15:51:52.006Z,448.00
2019-01-20T15:52:52.232Z,408.00
2019-01-20T15:53:52.359Z,380.00
2019-01-20T15:54:52.455Z,344.00
2019-01-20T15:55:52.607Z,316.00
2019-01-20T15:56:52.770Z,284.00
2019-01-20T15:57:52.981Z,260.00
2019-01-20T15:58:53.020Z,232.00
2019-01-20T15:59:53.213Z,212.00
2019-01-20T16:00:53.395Z,192.00
2019-01-20T16:01:53.629Z,172.00
2019-01-20T16:02:53.743Z,152.00
2019-01-20T16:03:53.945Z,136.00
2019-01-20T16:04:54.111Z,120.00
2019-01-20T16:05:54.296Z,104.00
2019-01-20T16:06:54.418Z,92.00
2019-01-20T16:07:54.575Z,84.00
2019-01-20T16:08:54.705Z,72.00
2019-01-20T16:09:54.938Z,60.00
2019-01-20T16:10:55.021Z,52.00
2019-01-20T16:11:55.156Z,44.00
2019-01-20T16:12:55.411Z,40.00
2019-01-20T16:13:56.405Z,36.00
2019-01-20T16:14:55.796Z,28.00
2019-01-20T16:15:55.923Z,24.00
2019-01-20T16:16:56.134Z,20.00
2019-01-20T16:17:56.230Z,16.00
2019-01-20T16:18:56.418Z,16.00
2019-01-20T16:19:56.553Z,12.00
2019-01-20T16:20:56.850Z,12.00
2019-01-20T16:21:57.004Z,8.00
2019-01-20T16:22:57.097Z,8.00
2019-01-20T16:23:57.312Z,4.00
2019-01-20T16:24:57.493Z,4.00
2019-01-20T16:25:57.558Z,4.00
2019-01-20T16:27:01.011Z,4.00
2019-01-20T16:27:57.897Z,4.00
2019-01-20T16:28:58.480Z,0.00
2019-01-20T16:29:58.249Z,4.00
2019-01-20T16:30:58.449Z,0.00
2019-01-20T16:31:58.634Z,0.00
2019-01-20T16:32:58.710Z,4.00
2019-01-20T16:33:58.881Z,4.00
2019-01-20T16:34:59.080Z,0.00
2019-01-20T16:35:59.266Z,0.00
2019-01-20T16:36:59.412Z,0.00
2019-01-20T16:37:59.592Z,0.00
2019-01-20T16:38:59.750Z,0.00
2019-01-20T16:39:59.875Z,0.00
2019-01-20T16:41:00.034Z,0.00
2019-01-20T16:42:00.165Z,0.00
2019-01-20T16:43:00.405Z,0.00
2019-01-20T16:44:00.510Z,0.00
2019-01-20T16:45:00.674Z,0.00
2019-01-20T16:46:00.818Z,0.00
2019-01-20T16:47:01.026Z,0.00
2019-01-20T16:48:01.237Z,0.00
2019-01-20T16:49:01.424Z,0.00
2019-01-20T16:50:01.586Z,0.00
2019-01-20T16:51:01.624Z,0.00
2019-01-20T16:52:01.759Z,0.00
2019-01-20T16:53:02.052Z,0.00
2019-01-20T16:54:02.167Z,0.00
2019-01-20T16:55:02.394Z,0.00